Time;durP1;ratioP1;P1;durP2;ratioP2;P2;SDS_P1;SDS_P2;PMS_P1;PMS_P2;Temp;Humidity;BMP_temperature;BMP_pressure;BME280_temperature;BME280_humidity;BME280_pressure;Samples;Min_cycle;Max_cycle;Signal;HPM_P1;HPM_P2
2022/11/09 00:00:35;;;;;;;82.03;61.10;;;;;;;29.30;63.73;100972.84;4996524;28;66314;-41
2022/11/09 00:03:07;;;;;;;92.93;68.80;;;;;;;29.38;73.13;100975.34;4998438;28;70167;-40
2022/11/09 00:05:38;;;;;;;101.43;72.47;;;;;;;29.51;73.04;100974.53;4999169;28;64934;-39
2022/11/09 00:08:10;;;;;;;100.07;71.27;;;;;;;29.54;74.26;100984.91;4993422;28;70136;-40
2022/11/09 00:10:41;;;;;;;99.75;72.97;;;;;;;29.58;73.92;100991.53;4992989;28;66255;-40
2022/11/09 00:13:12;;;;;;;99.47;70.63;;;;;;;29.58;75.32;100979.91;4996731;28;69433;-39
2022/11/09 00:15:43;;;;;;;100.00;70.60;;;;;;;29.70;75.52;100988.25;4998131;28;66471;-39
2022/11/09 00:18:14;;;;;;;87.57;65.95;;;;;;;29.72;76.08;100992.41;4995497;28;70471;-40
2022/11/09 00:20:46;;;;;;;89.40;65.90;;;;;;;29.59;76.53;100965.38;4995966;28;66245;-39
2022/11/09 00:23:17;;;;;;;94.10;64.20;;;;;;;29.64;76.33;100967.47;4998944;28;69980;-40
2022/11/09 00:25:48;;;;;;;83.47;61.90;;;;;;;29.79;76.47;100997.81;4997082;28;66396;-40
2022/11/09 00:28:19;;;;;;;84.68;61.95;;;;;;;29.81;75.87;100999.28;4995825;28;70337;-39
2022/11/09 00:30:50;;;;;;;77.82;57.10;;;;;;;29.84;75.52;101006.13;4997383;28;66506;-43
2022/11/09 00:33:21;;;;;;;79.35;55.97;;;;;;;29.88;75.29;101017.34;4990054;28;69540;-42
2022/11/09 00:35:52;;;;;;;77.45;53.03;;;;;;;29.75;74.83;101000.09;4996633;28;65319;-42
2022/11/09 00:38:23;;;;;;;71.60;53.25;;;;;;;29.89;75.29;101024.41;4994733;28;70281;-40
2022/11/09 00:41:01;;;;;;;77.93;52.65;;;;;;;29.75;75.35;101023.59;4993194;28;66330;-40
2022/11/09 00:43:33;;;;;;;74.70;49.53;;;;;;;29.97;72.25;101043.94;4996673;28;70656;-41
2022/11/09 00:46:04;;;;;;;56.67;42.20;;;;;;;29.89;71.64;101032.53;4997674;28;66829;-41
2022/11/09 00:48:38;;;;;;;48.38;38.17;;;;;;;29.93;71.37;101036.50;4999320;28;44258;-41
2022/11/09 00:51:10;;;;;;;44.13;35.07;;;;;;;30.01;70.70;101049.78;4998998;28;66275;-41
2022/11/09 00:53:42;;;;;;;43.05;35.58;;;;;;;29.99;70.49;101044.59;4993713;28;69524;-49
2022/11/09 00:56:13;;;;;;;47.17;36.03;;;;;;;30.06;69.96;101055.38;4999263;28;66030;-41
2022/11/09 00:58:44;;;;;;;45.83;34.63;;;;;;;29.97;69.64;101035.84;4994885;28;70015;-40
2022/11/09 01:01:16;;;;;;;46.43;33.90;;;;;;;30.14;69.18;101055.16;4999596;28;66518;-41
2022/11/09 01:03:48;;;;;;;43.63;33.22;;;;;;;30.17;68.72;101054.75;4999918;28;70208;-41
2022/11/09 01:06:24;;;;;;;42.55;33.45;;;;;;;29.61;68.85;100968.66;4999173;28;65825;-41
2022/11/09 01:08:57;;;;;;;38.13;32.40;;;;;;;30.19;68.77;101063.47;4997367;28;69908;-41
2022/11/09 01:11:28;;;;;;;39.72;33.03;;;;;;;30.15;68.16;101051.44;4979531;28;65104;-41
2022/11/09 01:14:00;;;;;;;41.47;32.17;;;;;;;30.21;68.48;101061.41;4996363;28;70863;-44
2022/11/09 01:16:31;;;;;;;39.90;31.45;;;;;;;30.20;68.03;101059.75;4999429;28;66330;-41
2022/11/09 01:19:05;;;;;;;37.75;30.17;;;;;;;30.35;68.36;101088.47;4996817;28;70508;-42
2022/11/09 01:21:35;;;;;;;46.47;32.25;;;;;;;30.23;67.74;101075.59;5000626;28;66716;-41
2022/11/09 01:24:08;;;;;;;41.13;30.50;;;;;;;30.36;67.79;101100.94;4993660;28;70504;-42
2022/11/09 01:26:39;;;;;;;35.28;31.10;;;;;;;30.38;67.75;101101.56;4993496;28;67001;-42
2022/11/09 01:29:10;;;;;;;31.95;27.50;;;;;;;30.42;67.26;101108.22;4997480;28;69158;-43
2022/11/09 01:31:41;;;;;;;34.78;29.33;;;;;;;30.43;67.72;101110.72;5009189;28;65251;-41
2022/11/09 01:34:12;;;;;;;32.10;28.23;;;;;;;30.40;66.91;101104.91;4998472;28;70091;-42
2022/11/09 01:36:43;;;;;;;37.77;29.50;;;;;;;30.43;67.17;101108.03;4999822;28;66760;-41
2022/11/09 01:39:14;;;;;;;35.83;28.50;;;;;;;30.47;67.21;101108.41;4997592;28;70167;-41
2022/11/09 01:41:45;;;;;;;32.28;27.05;;;;;;;30.51;67.08;101104.25;4998284;28;66545;-41
2022/11/09 01:44:19;;;;;;;38.00;28.08;;;;;;;30.55;67.07;101115.47;4999542;28;70239;-41
2022/11/09 01:46:52;;;;;;;32.90;28.00;;;;;;;30.56;66.53;101117.97;4991248;28;66800;-41
2022/11/09 01:49:36;;;;;;;35.30;28.05;;;;;;;30.51;66.81;101120.50;4994412;28;70326;-41
2022/11/09 01:52:37;;;;;;;33.17;26.33;;;;;;;30.45;67.03;101116.75;4989803;28;65999;-41
2022/11/09 01:55:14;;;;;;;32.80;28.08;;;;;;;30.50;66.64;101108.00;4972092;28;70590;-41
2022/11/09 01:58:05;;;;;;;38.40;27.17;;;;;;;30.49;66.81;101114.47;4995523;28;66759;-43
2022/11/09 02:00:37;;;;;;;33.00;26.73;;;;;;;30.59;66.30;101116.72;4982073;28;69342;-42
2022/11/09 02:03:18;;;;;;;36.92;27.50;;;;;;;30.64;66.09;101131.28;4999499;28;66883;-43
2022/11/09 02:05:51;;;;;;;32.85;26.80;;;;;;;30.64;66.34;101125.84;4982718;28;70142;-43
2022/11/09 02:08:25;;;;;;;32.80;25.90;;;;;;;30.09;65.99;101025.22;4965526;28;64375;-43
2022/11/09 02:11:12;;;;;;;32.55;27.02;;;;;;;30.57;66.37;101119.66;4998108;28;70063;-43
2022/11/09 02:13:49;;;;;;;29.55;26.30;;;;;;;30.24;66.06;101050.19;4994766;28;65769;-42
2022/11/09 02:16:22;;;;;;;28.88;24.45;;;;;;;30.58;66.09;101094.22;5014994;28;69586;-41
2022/11/09 02:18:55;;;;;;;28.92;25.55;;;;;;;30.23;66.01;101037.72;4995435;28;65784;-41
2022/11/09 02:21:29;;;;;;;30.92;26.25;;;;;;;30.71;66.15;101110.44;5013919;28;69569;-42
2022/11/09 02:24:00;;;;;;;30.08;25.88;;;;;;;30.73;66.04;101121.88;5000548;28;65095;-41
2022/11/09 02:26:42;;;;;;;36.25;26.80;;;;;;;30.62;65.93;101095.47;5007450;28;69572;-41
2022/11/09 02:29:15;;;;;;;;;;;;;;;30.45;66.78;101124.03;4999474;28;66567;-42
2022/11/09 02:31:52;;;;;;;26.15;23.33;;;;;;;30.78;65.86;101120.41;4999214;28;70036;-41
2022/11/09 02:34:24;;;;;;;28.90;25.23;;;;;;;30.79;65.39;101116.66;4993964;28;66507;-42
2022/11/09 02:36:55;;;;;;;;;;;;;;;30.47;66.61;101122.78;4993447;28;70094;-42
2022/11/09 02:39:27;;;;;;;27.83;24.70;;;;;;;30.80;65.55;101123.75;4996562;28;66010;-41
2022/11/09 02:42:04;;;;;;;26.63;23.77;;;;;;;30.37;65.42;101048.47;4995636;28;69224;-41
2022/11/09 02:44:48;;;;;;;29.50;26.45;;;;;;;30.88;65.19;101139.78;4980017;28;65801;-42
2022/11/09 02:47:19;;;;;;;28.52;25.38;;;;;;;30.85;65.44;101122.06;4999567;28;70110;-41
2022/11/09 02:49:50;;;;;;;31.83;26.50;;;;;;;30.83;65.33;101115.22;4997361;28;66675;-43
2022/11/09 02:52:21;;;;;;;27.52;24.58;;;;;;;30.92;65.44;101127.44;4998522;28;70103;-42
2022/11/09 02:54:54;;;;;;;30.10;25.00;;;;;;;30.97;65.06;101127.66;4984412;28;64630;-42
2022/11/09 02:57:24;;;;;;;30.98;25.13;;;;;;;30.91;65.09;101109.56;5000924;28;70004;-41
2022/11/09 02:59:56;;;;;;;28.17;25.08;;;;;;;31.02;64.97;101122.41;5001097;28;66277;-41
2022/11/09 03:02:27;;;;;;;30.30;26.03;;;;;;;31.04;64.52;101119.50;5002432;28;69162;-41
2022/11/09 03:04:59;;;;;;;28.67;24.67;;;;;;;31.02;64.69;101111.59;5002189;28;67487;-42
2022/11/09 03:07:31;;;;;;;27.20;24.20;;;;;;;31.06;64.31;101112.81;5001076;28;70333;-41
2022/11/09 03:10:03;;;;;;;25.98;23.33;;;;;;;31.05;64.52;101104.91;5003187;28;65659;-41
2022/11/09 03:12:35;;;;;;;26.13;22.50;;;;;;;31.10;64.36;101114.03;5000237;28;69565;-42
2022/11/09 03:15:10;;;;;;;25.80;22.77;;;;;;;31.10;64.54;101105.09;5000168;28;66549;-42
2022/11/09 03:17:45;;;;;;;27.08;24.27;;;;;;;31.05;64.36;101094.88;4993272;28;69545;-42
2022/11/09 03:20:20;;;;;;;30.88;23.75;;;;;;;31.19;64.25;101102.94;5002035;28;66023;-42
2022/11/09 03:22:50;;;;;;;26.73;24.02;;;;;;;31.20;64.26;101107.31;5017704;28;70031;-41
2022/11/09 03:25:22;;;;;;;29.80;23.90;;;;;;;31.23;64.08;101101.47;4999522;28;66453;-42
2022/11/09 03:27:58;;;;;;;26.95;22.95;;;;;;;31.26;63.86;101098.31;5001373;28;70431;-43
2022/11/09 03:30:31;;;;;;;28.58;22.80;;;;;;;31.22;64.26;101094.38;4978779;28;65373;-41
2022/11/09 03:33:08;;;;;;;29.73;23.33;;;;;;;31.27;63.91;101091.84;4991525;28;69430;-41
2022/11/09 03:35:40;;;;;;;28.25;23.30;;;;;;;31.31;63.94;101098.50;4999958;28;66398;-41
2022/11/09 03:38:12;;;;;;;26.83;22.70;;;;;;;31.21;63.57;101063.75;4999860;28;70501;-41
2022/11/09 03:40:43;;;;;;;26.77;22.70;;;;;;;31.22;63.91;101072.72;4998366;28;65630;-41
2022/11/09 03:43:14;;;;;;;24.02;21.73;;;;;;;31.33;63.67;101080.13;4998636;28;71073;-43
2022/11/09 03:45:47;;;;;;;;;;;;;;;31.05;64.21;101075.94;4995250;28;64916;-43
2022/11/09 03:48:17;;;;;;;24.67;22.13;;;;;;;31.33;63.69;101075.53;5000825;28;69225;-42
2022/11/09 03:50:48;;;;;;;28.33;22.90;;;;;;;31.27;63.66;101052.03;5002114;28;66686;-41
2022/11/09 03:53:19;;;;;;;26.73;23.85;;;;;;;31.36;63.39;101068.88;5001466;28;70257;-41
2022/11/09 03:55:51;;;;;;;28.40;22.43;;;;;;;31.36;63.73;101068.88;5000357;28;65902;-42
2022/11/09 03:58:22;;;;;;;29.33;23.25;;;;;;;31.37;63.83;101060.56;4999037;28;69963;-42
2022/11/09 04:00:53;;;;;;;25.42;22.77;;;;;;;31.40;63.77;101053.88;4999227;28;66918;-42
2022/11/09 04:03:24;;;;;;;29.08;22.88;;;;;;;31.40;63.84;101051.16;4998634;28;69977;-43
2022/11/09 04:05:58;;;;;;;26.95;22.73;;;;;;;31.30;63.44;101035.31;4999350;28;66042;-42
2022/11/09 04:08:29;;;;;;;26.00;23.13;;;;;;;31.42;63.68;101048.19;5004622;28;70182;-41
2022/11/09 04:11:00;;;;;;;29.57;23.50;;;;;;;31.39;63.48;101046.75;4999725;28;66219;-43
2022/11/09 04:13:31;;;;;;;25.48;22.70;;;;;;;31.44;63.48;101049.66;4998299;28;70234;-41
2022/11/09 04:16:02;;;;;;;26.00;22.43;;;;;;;31.46;63.49;101041.31;5001621;28;66039;-43
2022/11/09 04:18:34;;;;;;;25.00;22.42;;;;;;;31.31;63.57;101011.75;5002002;28;69575;-42
2022/11/09 04:21:05;;;;;;;27.08;22.95;;;;;;;31.49;63.19;101022.72;4998531;28;65948;-46
2022/11/09 04:23:36;;;;;;;25.90;23.17;;;;;;;31.51;63.34;101014.34;5002207;28;70251;-42
2022/11/09 04:26:07;;;;;;;29.65;22.55;;;;;;;31.41;63.04;101000.47;5002144;28;66378;-42
2022/11/09 04:28:37;;;;;;;28.95;23.30;;;;;;;31.51;63.10;101009.78;5000041;28;69764;-42
2022/11/09 04:31:08;;;;;;;26.05;23.15;;;;;;;31.58;63.01;101010.53;4997842;28;65388;-42
2022/11/09 04:33:39;;;;;;;25.63;21.48;;;;;;;31.59;63.18;101014.91;5000157;28;71344;-41
2022/11/09 04:36:10;;;;;;;26.25;22.05;;;;;;;31.49;63.08;100987.47;4999907;28;65915;-44
2022/11/09 04:38:41;;;;;;;38.47;22.17;;;;;;;31.62;62.99;101000.06;5000135;28;70328;-41
2022/11/09 04:41:12;;;;;;;27.58;23.00;;;;;;;31.60;62.65;100975.06;4987615;28;65769;-42
2022/11/09 04:43:43;;;;;;;35.58;24.42;;;;;;;31.68;63.01;100985.63;4992980;28;71025;-41
2022/11/09 04:46:14;;;;;;;25.80;22.80;;;;;;;31.73;62.76;100979.50;4999848;28;66268;-42
2022/11/09 04:48:45;;;;;;;31.23;22.73;;;;;;;31.75;62.81;100980.94;4994593;28;70558;-43
2022/11/09 04:51:16;;;;;;;29.55;22.73;;;;;;;31.77;63.04;100978.03;4995869;28;66356;-43
2022/11/09 04:53:47;;;;;;;26.42;23.58;;;;;;;31.73;62.79;100965.94;5000469;28;69927;-44
2022/11/09 04:56:18;;;;;;;30.67;25.30;;;;;;;31.81;62.97;100963.78;4994935;28;68407;-43
2022/11/09 04:58:49;;;;;;;32.57;24.27;;;;;;;31.79;62.88;100948.81;4998979;28;70680;-42
2022/11/09 05:01:20;;;;;;;26.58;23.88;;;;;;;31.87;62.79;100948.47;4999089;28;66217;-41
2022/11/09 05:03:52;;;;;;;25.98;23.35;;;;;;;31.87;62.60;100929.50;4992022;28;70162;-41
2022/11/09 05:06:32;;;;;;;28.33;24.13;;;;;;;31.38;62.39;100855.38;4996343;28;65231;-41
2022/11/09 05:09:06;;;;;;;29.20;24.38;;;;;;;31.95;62.46;100931.13;4997266;28;70146;-43
2022/11/09 05:11:37;;;;;;;29.50;22.85;;;;;;;31.92;62.43;100935.09;4997855;28;65674;-43
2022/11/09 05:14:09;;;;;;;26.13;23.70;;;;;;;31.94;62.60;100930.28;4998129;28;68962;-44
2022/11/09 05:16:39;;;;;;;25.75;22.95;;;;;;;31.94;62.43;100930.28;4996536;28;64736;-42
2022/11/09 05:19:11;;;;;;;29.08;24.05;;;;;;;31.94;62.54;100919.44;5012262;28;70183;-43
2022/11/09 05:21:42;;;;;;;33.45;24.35;;;;;;;31.85;62.20;100888.22;4996551;28;65991;-42
2022/11/09 05:24:13;;;;;;;26.00;23.45;;;;;;;31.91;62.27;100900.03;4997407;28;70260;-42
2022/11/09 05:26:44;;;;;;;26.33;23.67;;;;;;;31.95;62.24;100904.81;4999165;28;66652;-43
2022/11/09 05:29:14;;;;;;;30.63;24.50;;;;;;;31.97;62.53;100902.69;4999401;28;71213;-41
2022/11/09 05:31:46;;;;;;;26.00;23.30;;;;;;;31.94;62.41;100894.19;4993606;28;65284;-43
2022/11/09 05:34:20;;;;;;;25.98;23.52;;;;;;;31.96;62.34;100890.19;4982498;28;70102;-41
2022/11/09 05:36:51;;;;;;;26.60;23.25;;;;;;;31.67;62.18;100839.41;4998047;28;66576;-43
2022/11/09 05:39:27;;;;;;;26.27;23.67;;;;;;;32.00;62.55;100890.56;4998973;28;69997;-44
2022/11/09 05:41:59;;;;;;;25.42;22.83;;;;;;;31.93;62.29;100868.97;4997967;28;65898;-41
2022/11/09 05:44:30;;;;;;;;;;;;;;;31.73;62.98;100879.16;4996472;28;69897;-42
2022/11/09 05:47:01;;;;;;;27.48;24.17;;;;;;;32.04;62.12;100873.63;4989888;28;66893;-42
2022/11/09 05:49:33;;;;;;;27.90;24.45;;;;;;;32.07;62.22;100883.19;4998930;28;70364;-42
2022/11/09 05:52:03;;;;;;;32.35;24.17;;;;;;;32.11;62.08;100869.97;4998346;28;66114;-44
2022/11/09 05:54:34;;;;;;;31.60;24.52;;;;;;;32.00;61.96;100853.41;4999042;28;69898;-43
2022/11/09 05:57:05;;;;;;;30.27;24.88;;;;;;;32.08;62.00;100854.16;5000071;28;65591;-43
2022/11/09 05:59:36;;;;;;;26.15;23.58;;;;;;;32.11;61.95;100853.69;4995274;28;69886;-42
2022/11/09 06:02:07;;;;;;;27.48;22.95;;;;;;;32.17;61.84;100850.06;4995862;28;66249;-43
2022/11/09 06:04:38;;;;;;;24.88;22.30;;;;;;;32.10;61.78;100842.03;4997245;28;69718;-42
2022/11/09 06:07:09;;;;;;;25.52;22.95;;;;;;;32.21;61.71;100835.81;4997548;28;65651;-41
2022/11/09 06:09:40;;;;;;;25.42;22.98;;;;;;;32.22;61.80;100829.31;4996807;28;70191;-43
2022/11/09 06:12:11;;;;;;;25.88;22.88;;;;;;;32.24;61.89;100826.38;4998666;28;65398;-41
2022/11/09 06:14:42;;;;;;;25.23;22.50;;;;;;;32.19;61.48;100812.66;4992926;28;69575;-41
2022/11/09 06:17:14;;;;;;;30.10;22.37;;;;;;;32.27;61.53;100820.50;4997087;28;67134;-41
2022/11/09 06:19:45;;;;;;;30.00;22.10;;;;;;;32.21;61.74;100791.56;4990974;28;69322;-41
2022/11/09 06:22:16;;;;;;;23.23;20.80;;;;;;;32.32;61.51;100811.63;4993460;28;66422;-42
2022/11/09 06:24:47;;;;;;;25.17;20.92;;;;;;;32.33;61.50;100808.69;4997656;28;69325;-42
2022/11/09 06:27:18;;;;;;;25.33;21.03;;;;;;;32.35;61.27;100806.59;4994335;28;65751;-42
2022/11/09 06:29:49;;;;;;;23.73;20.42;;;;;;;32.36;61.52;100801.97;5003215;28;71469;-41
2022/11/09 06:32:20;;;;;;;31.38;21.38;;;;;;;32.24;61.13;100777.53;5001187;28;65849;-42
2022/11/09 06:34:51;;;;;;;22.52;20.05;;;;;;;32.30;61.25;100782.03;4997801;28;69423;-41
2022/11/09 06:37:21;;;;;;;30.55;20.52;;;;;;;32.36;60.89;100782.97;5000871;28;66561;-41
2022/11/09 06:39:52;;;;;;;23.98;19.77;;;;;;;32.28;60.71;100767.84;4996785;28;69939;-41
2022/11/09 06:42:23;;;;;;;25.15;19.90;;;;;;;32.44;61.10;100779.94;5000821;28;65929;-41
2022/11/09 06:44:54;;;;;;;22.80;20.30;;;;;;;32.40;61.12;100770.56;4997322;28;71357;-41
2022/11/09 06:47:27;;;;;;;21.50;19.05;;;;;;;32.03;60.68;100706.44;4997944;28;66078;-42
2022/11/09 06:49:58;;;;;;;22.98;20.05;;;;;;;32.49;60.72;100772.75;5001948;28;70187;-42
2022/11/09 06:52:29;;;;;;;21.77;19.52;;;;;;;32.58;60.73;100786.81;4997320;28;66410;-43
2022/11/09 06:55:00;;;;;;;27.20;20.23;;;;;;;32.45;60.97;100752.53;4998778;28;70257;-42
2022/11/09 06:57:31;;;;;;;25.48;19.45;;;;;;;32.57;60.79;100765.31;5001084;28;66340;-42
2022/11/09 07:00:04;;;;;;;20.48;18.30;;;;;;;32.27;60.52;100701.06;4997589;28;70121;-41
2022/11/09 07:02:35;;;;;;;21.40;18.83;;;;;;;32.56;60.45;100745.50;4997119;28;66775;-42
2022/11/09 07:05:06;;;;;;;20.58;18.67;;;;;;;32.65;60.64;100756.81;5001188;28;69703;-42
2022/11/09 07:07:37;;;;;;;21.17;18.93;;;;;;;32.43;60.22;100722.09;5000801;28;66662;-43
2022/11/09 07:10:08;;;;;;;20.27;18.23;;;;;;;32.70;60.48;100756.94;4997681;28;70165;-42
2022/11/09 07:12:39;;;;;;;26.80;17.67;;;;;;;32.63;60.62;100743.50;5001950;28;66427;-41
2022/11/09 07:15:11;;;;;;;22.75;18.05;;;;;;;32.54;60.45;100714.19;4997547;28;70455;-43
2022/11/09 07:17:42;;;;;;;22.83;18.15;;;;;;;32.77;60.24;100748.69;4995157;28;66569;-42
2022/11/09 07:20:13;;;;;;;31.38;17.75;;;;;;;32.67;60.30;100719.41;4997616;28;70549;-41
2022/11/09 07:22:49;;;;;;;21.23;17.75;;;;;;;32.76;60.12;100720.69;4991540;28;66224;-42
2022/11/09 07:25:20;;;;;;;25.40;18.65;;;;;;;32.90;60.31;100733.00;4996550;28;69926;-41
2022/11/09 07:27:52;;;;;;;29.63;18.15;;;;;;;32.91;60.13;100723.75;5001274;28;66280;-41
2022/11/09 07:30:23;;;;;;;20.75;17.52;;;;;;;32.86;59.95;100704.63;4993503;28;70195;-41
2022/11/09 07:32:58;;;;;;;24.95;17.65;;;;;;;32.99;59.98;100722.56;4990489;28;66369;-41
2022/11/09 07:35:38;;;;;;;21.13;17.10;;;;;;;32.91;59.79;100704.75;4997922;28;69494;-41
2022/11/09 07:38:10;;;;;;;26.30;17.20;;;;;;;33.00;59.96;100709.84;4993675;28;66168;-41
2022/11/09 07:40:41;;;;;;;18.25;16.38;;;;;;;33.07;59.71;100721.38;4999744;28;69949;-42
2022/11/09 07:43:13;;;;;;;27.40;17.90;;;;;;;33.11;59.73;100711.72;4998456;28;66147;-42
2022/11/09 07:45:50;;;;;;;21.17;17.35;;;;;;;33.03;59.58;100693.06;4994735;28;70071;-42
2022/11/09 07:48:21;;;;;;;22.88;16.42;;;;;;;33.16;59.61;100714.53;5001357;28;65712;-41
2022/11/09 07:50:52;;;;;;;18.77;15.90;;;;;;;33.18;59.45;100712.38;4999529;28;70758;-42
2022/11/09 07:53:23;;;;;;;17.88;16.02;;;;;;;33.21;59.32;100711.09;4998865;28;66106;-41
2022/11/09 07:56:02;;;;;;;17.73;16.02;;;;;;;33.25;59.17;100718.53;4997270;28;69705;-43
2022/11/09 07:58:34;;;;;;;23.90;16.08;;;;;;;33.30;59.17;100710.47;5012339;28;66841;-43
2022/11/09 08:01:10;;;;;;;26.15;16.13;;;;;;;33.32;58.71;100711.06;5000894;28;70214;-43
2022/11/09 08:03:41;;;;;;;23.70;16.13;;;;;;;33.33;58.97;100710.00;4997923;28;66466;-42
2022/11/09 08:06:12;;;;;;;28.48;16.33;;;;;;;33.33;58.79;100698.31;5001049;28;69534;-41
2022/11/09 08:08:48;;;;;;;29.38;16.88;;;;;;;33.24;58.46;100684.28;4996817;28;65729;-41
2022/11/09 08:11:20;;;;;;;19.90;15.77;;;;;;;33.31;58.64;100689.56;4992652;28;70561;-41
2022/11/09 08:13:51;;;;;;;22.37;15.97;;;;;;;33.35;58.55;100691.56;5000213;28;65872;-41
2022/11/09 08:16:23;;;;;;;27.52;16.15;;;;;;;33.30;58.72;100677.03;5000834;28;69041;-43
2022/11/09 08:18:53;;;;;;;31.50;16.25;;;;;;;33.35;58.37;100688.84;4999247;28;65178;-42
2022/11/09 08:21:25;;;;;;;20.70;14.77;;;;;;;33.36;58.38;100692.38;5001448;28;69700;-43
2022/11/09 08:23:56;;;;;;;23.20;16.50;;;;;;;33.38;58.30;100685.63;4996106;28;66661;-41
2022/11/09 08:26:27;;;;;;;30.10;15.85;;;;;;;33.44;58.28;100704.78;5000825;28;70449;-43
2022/11/09 08:28:58;;;;;;;27.33;15.52;;;;;;;33.47;58.47;100698.84;4999883;28;65556;-43
2022/11/09 08:31:29;;;;;;;17.98;15.00;;;;;;;33.31;58.11;100678.69;4997583;28;70182;-41
2022/11/09 08:34:00;;;;;;;;;;;;;;;33.25;58.63;100704.94;5000070;28;65050;-42
2022/11/09 08:36:32;;;;;;;17.10;15.30;;;;;;;33.48;58.12;100700.47;4993667;28;69685;-41
2022/11/09 08:39:03;;;;;;;16.92;15.13;;;;;;;33.50;58.14;100703.78;4993501;28;66383;-42
2022/11/09 08:41:34;;;;;;;;;;;;;;;33.25;58.57;100694.06;4999007;28;69402;-41
2022/11/09 08:44:05;;;;;;;23.50;14.73;;;;;;;33.27;57.98;100656.59;5012854;28;65965;-48
2022/11/09 08:46:37;;;;;;;22.08;15.02;;;;;;;33.51;58.31;100689.94;4999540;28;69206;-42
2022/11/09 08:49:10;;;;;;;19.90;15.18;;;;;;;33.49;58.26;100685.81;4999182;28;66310;-41
2022/11/09 08:51:41;;;;;;;16.90;15.20;;;;;;;33.47;57.94;100683.34;4997469;28;69995;-43
2022/11/09 08:54:13;;;;;;;21.55;14.90;;;;;;;33.53;57.91;100700.63;4999853;28;66143;-41
2022/11/09 08:56:45;;;;;;;28.02;14.60;;;;;;;33.56;58.20;100702.84;4999802;28;70184;-43
2022/11/09 08:59:16;;;;;;;20.70;15.25;;;;;;;33.43;58.04;100682.16;4996176;28;64903;-41
2022/11/09 09:01:47;;;;;;;21.08;14.25;;;;;;;33.55;58.05;100690.34;4998109;28;69328;-41
2022/11/09 09:04:18;;;;;;;19.50;14.20;;;;;;;33.57;57.96;100699.03;4999558;28;65649;-43
2022/11/09 09:06:49;;;;;;;18.58;14.82;;;;;;;33.56;57.92;100708.28;4998233;28;70123;-42
2022/11/09 09:09:20;;;;;;;27.80;14.97;;;;;;;33.57;57.76;100696.34;4998013;28;66438;-41
2022/11/09 09:11:51;;;;;;;27.33;15.75;;;;;;;33.57;57.77;100693.59;4992789;28;69305;-41
2022/11/09 09:14:22;;;;;;;27.60;16.27;;;;;;;33.56;58.06;100702.84;4994065;28;66990;-43
2022/11/09 09:16:52;;;;;;;27.23;15.43;;;;;;;33.55;57.84;100704.75;4997571;28;70225;-43
2022/11/09 09:19:24;;;;;;;22.70;14.83;;;;;;;33.57;57.94;100704.50;5000244;28;65611;-43
2022/11/09 09:21:55;;;;;;;23.52;15.40;;;;;;;33.54;57.84;100704.97;5000102;28;69918;-43
2022/11/09 09:24:26;;;;;;;22.83;15.32;;;;;;;33.55;57.77;100706.66;4996757;28;66016;-42
2022/11/09 09:26:58;;;;;;;26.70;15.38;;;;;;;33.47;58.13;100696.94;4998808;28;68958;-42
2022/11/09 09:29:29;;;;;;;19.93;14.27;;;;;;;33.57;57.76;100701.78;5000149;28;65908;-41
2022/11/09 09:32:01;;;;;;;20.75;14.93;;;;;;;33.56;57.79;100713.72;4996036;28;70245;-43
2022/11/09 09:34:32;;;;;;;18.35;15.32;;;;;;;33.55;57.81;100714.81;4991081;28;66045;-43
2022/11/09 09:37:03;;;;;;;20.88;15.05;;;;;;;33.55;57.75;100717.53;4996821;28;69313;-43
2022/11/09 09:39:34;;;;;;;19.42;15.27;;;;;;;33.52;57.73;100712.53;4991594;28;65927;-43
2022/11/09 09:42:38;;;;;;;18.95;14.95;;;;;;;32.72;57.58;100578.28;4993142;28;69244;-43
2022/11/09 09:45:19;;;;;;;16.27;14.68;;;;;;;33.55;57.98;100722.97;4995930;28;65782;-43
2022/11/09 09:48:15;;;;;;;15.95;14.43;;;;;;;33.53;57.79;100725.91;5000404;28;70309;-43
2022/11/09 09:50:53;;;;;;;22.33;15.30;;;;;;;33.48;57.71;100724.97;4999941;28;66896;-42
2022/11/09 09:53:44;;;;;;;18.55;14.68;;;;;;;33.52;57.94;100724.28;4996072;28;70291;-42
2022/11/09 09:56:30;;;;;;;21.67;14.70;;;;;;;33.02;57.76;100656.09;4995729;28;65200;-42
2022/11/09 09:59:26;;;;;;;18.40;15.60;;;;;;;33.47;57.65;100734.19;4996123;28;70792;-41
2022/11/09 10:01:57;;;;;;;19.10;15.48;;;;;;;33.49;57.76;100742.91;4995826;28;65355;-43
2022/11/09 10:04:37;;;;;;;16.88;14.50;;;;;;;33.44;57.87;100753.72;5000428;28;70350;-42
2022/11/09 10:07:25;;;;;;;15.75;14.10;;;;;;;33.49;58.05;100751.06;4998780;28;65690;-41
2022/11/09 10:10:08;;;;;;;16.42;14.63;;;;;;;33.43;58.47;100765.63;4993386;28;71221;-44
2022/11/09 10:12:58;;;;;;;15.98;14.48;;;;;;;33.40;58.24;100768.84;5001753;28;66328;-44
2022/11/09 10:15:44;;;;;;;17.63;14.63;;;;;;;33.44;58.17;100756.44;4997896;28;68335;-44
2022/11/09 10:18:39;;;;;;;15.93;14.38;;;;;;;33.36;58.43;100760.34;5000057;28;66406;-44
2022/11/09 10:21:45;;;;;;;21.58;14.38;;;;;;;33.35;58.05;100767.69;5001465;28;70031;-41
2022/11/09 10:24:31;;;;;;;15.73;14.10;;;;;;;33.35;58.28;100767.69;5000957;28;66618;-43
2022/11/09 10:27:21;;;;;;;15.32;13.90;;;;;;;33.35;58.08;100769.59;4993820;28;70480;-44
2022/11/09 10:29:53;;;;;;;16.45;14.75;;;;;;;33.38;58.57;100771.81;5000413;28;65637;-44
2022/11/09 10:32:31;;;;;;;18.13;15.05;;;;;;;33.27;58.24;100749.03;5001701;28;70448;-44
2022/11/09 10:35:18;;;;;;;15.52;14.32;;;;;;;33.36;58.50;100774.75;5000162;28;66267;-44
2022/11/09 10:37:51;;;;;;;16.42;14.73;;;;;;;33.34;58.41;100776.88;5000189;28;70155;-42
2022/11/09 10:40:44;;;;;;;19.42;14.02;;;;;;;33.33;58.26;100777.97;4998175;28;65549;-43
2022/11/09 10:43:34;;;;;;;16.10;14.57;;;;;;;33.29;58.60;100782.25;5000093;28;69433;-44
2022/11/09 10:46:23;;;;;;;18.02;14.98;;;;;;;33.23;59.06;100785.06;5000292;28;66534;-43
2022/11/09 10:49:21;;;;;;;19.65;15.98;;;;;;;33.19;59.62;100806.47;5000283;28;69796;-42
2022/11/09 10:52:38;;;;;;;32.30;17.27;;;;;;;33.12;61.70;100811.19;5000694;28;66229;-44
2022/11/09 10:55:35;;;;;;;40.80;17.20;;;;;;;33.16;61.47;100809.66;5000092;28;70700;-41
2022/11/09 10:58:33;;;;;;;22.90;16.77;;;;;;;33.16;61.58;100815.09;5001452;28;66810;-42
2022/11/09 11:01:24;;;;;;;25.73;15.18;;;;;;;33.18;60.62;100826.53;5001289;28;70320;-43
2022/11/09 11:04:25;;;;;;;27.00;15.70;;;;;;;33.09;60.51;100819.81;4999056;28;66349;-41
2022/11/09 11:07:19;;;;;;;23.50;15.38;;;;;;;32.98;60.22;100794.28;5000075;28;69803;-41
2022/11/09 11:10:20;;;;;;;21.80;14.70;;;;;;;33.08;60.65;100818.19;4998722;28;66712;-42
2022/11/09 11:13:09;;;;;;;32.90;15.40;;;;;;;33.07;61.46;100819.22;4995210;28;69511;-44
2022/11/09 11:15:58;;;;;;;17.25;15.13;;;;;;;33.11;61.31;100831.28;4999266;28;66636;-43
2022/11/09 11:18:48;;;;;;;24.42;15.48;;;;;;;33.11;61.63;100834.84;4991775;28;70110;-42
2022/11/09 11:21:37;;;;;;;23.27;15.73;;;;;;;32.68;61.87;100772.66;4999487;28;66157;-45
2022/11/09 11:24:26;;;;;;;21.65;15.00;;;;;;;32.92;61.80;100815.06;5001828;28;68961;-42
2022/11/09 11:27:31;;;;;;;20.35;15.23;;;;;;;32.62;61.89;100773.59;5002399;28;65679;-42
2022/11/09 11:30:36;;;;;;;18.98;15.45;;;;;;;32.92;62.19;100836.81;4998763;28;69955;-42
2022/11/09 11:33:26;;;;;;;20.73;15.02;;;;;;;33.05;61.78;100854.00;4997326;28;66693;-44
2022/11/09 11:36:22;;;;;;;20.92;15.25;;;;;;;33.06;61.89;100861.06;4996295;28;69533;-43
2022/11/09 11:39:35;;;;;;;16.17;13.88;;;;;;;32.94;62.11;100870.00;4998437;28;66173;-45
2022/11/09 11:42:48;;;;;;;22.00;15.48;;;;;;;32.96;61.93;100882.53;4996621;28;69740;-44
2022/11/09 11:46:03;;;;;;;17.70;15.35;;;;;;;32.53;62.24;100819.28;4996744;28;65868;-42
2022/11/09 11:49:26;;;;;;;19.55;15.02;;;;;;;32.92;62.63;100883.00;5012248;28;69194;-44